sensor_id;sensor_type;location;lat;lon;timestamp;P1;durP1;ratioP1;P2;durP2;ratioP2
5979;SDS011;3016;50.308;8.258;2023-05-10T00:02:35;11.50;;;1.00;;
5979;SDS011;3016;50.308;8.258;2023-05-10T00:05:36;10.67;;;0.80;;
5979;SDS011;3016;50.308;8.258;2023-05-10T00:08:36;11.30;;;1.20;;
5979;SDS011;3016;50.308;8.258;2023-05-10T00:11:37;10.80;;;0.90;;
5979;SDS011;3016;50.308;8.258;2023-05-10T00:14:38;12.43;;;0.90;;
5979;SDS011;3016;50.308;8.258;2023-05-10T00:17:38;12.43;;;0.90;;
5979;SDS011;3016;50.308;8.258;2023-05-10T00:20:40;10.93;;;1.00;;
5979;SDS011;3016;50.308;8.258;2023-05-10T00:23:40;17.13;;;1.20;;
5979;SDS011;3016;50.308;8.258;2023-05-10T00:26:41;11.20;;;0.90;;
5979;SDS011;3016;50.308;8.258;2023-05-10T00:29:42;12.67;;;1.13;;
5979;SDS011;3016;50.308;8.258;2023-05-10T00:32:42;10.70;;;0.90;;
5979;SDS011;3016;50.308;8.258;2023-05-10T00:35:43;11.03;;;1.20;;
5979;SDS011;3016;50.308;8.258;2023-05-10T00:38:44;11.00;;;1.00;;
5979;SDS011;3016;50.308;8.258;2023-05-10T00:41:45;10.90;;;1.00;;
5979;SDS011;3016;50.308;8.258;2023-05-10T00:44:46;10.67;;;0.80;;
5979;SDS011;3016;50.308;8.258;2023-05-10T00:47:47;10.87;;;0.93;;
5979;SDS011;3016;50.308;8.258;2023-05-10T00:50:47;11.07;;;0.80;;
5979;SDS011;3016;50.308;8.258;2023-05-10T00:53:48;11.13;;;1.00;;
5979;SDS011;3016;50.308;8.258;2023-05-10T00:56:51;10.97;;;1.00;;
5979;SDS011;3016;50.308;8.258;2023-05-10T00:59:52;10.67;;;0.80;;
5979;SDS011;3016;50.308;8.258;2023-05-10T01:02:53;10.97;;;1.00;;
5979;SDS011;3016;50.308;8.258;2023-05-10T01:05:54;10.90;;;1.00;;
5979;SDS011;3016;50.308;8.258;2023-05-10T01:08:55;11.30;;;1.10;;
5979;SDS011;3016;50.308;8.258;2023-05-10T01:11:56;11.30;;;0.90;;
5979;SDS011;3016;50.308;8.258;2023-05-10T01:14:57;10.77;;;0.90;;
5979;SDS011;3016;50.308;8.258;2023-05-10T01:17:57;12.10;;;1.10;;
5979;SDS011;3016;50.308;8.258;2023-05-10T01:34:21;11.77;;;1.07;;
5979;SDS011;3016;50.308;8.258;2023-05-10T01:37:33;10.67;;;0.70;;
5979;SDS011;3016;50.308;8.258;2023-05-10T01:45:02;12.27;;;1.00;;
5979;SDS011;3016;50.308;8.258;2023-05-10T01:48:22;10.87;;;1.00;;
5979;SDS011;3016;50.308;8.258;2023-05-10T01:51:24;11.00;;;1.00;;
5979;SDS011;3016;50.308;8.258;2023-05-10T01:54:31;10.90;;;1.17;;
5979;SDS011;3016;50.308;8.258;2023-05-10T01:57:34;10.73;;;1.00;;
5979;SDS011;3016;50.308;8.258;2023-05-10T02:00:37;10.97;;;1.00;;
5979;SDS011;3016;50.308;8.258;2023-05-10T02:03:43;11.30;;;1.20;;
5979;SDS011;3016;50.308;8.258;2023-05-10T02:06:44;10.80;;;0.87;;
5979;SDS011;3016;50.308;8.258;2023-05-10T02:09:47;10.80;;;1.00;;
5979;SDS011;3016;50.308;8.258;2023-05-10T02:12:48;10.90;;;1.10;;
5979;SDS011;3016;50.308;8.258;2023-05-10T02:15:50;10.67;;;0.83;;
5979;SDS011;3016;50.308;8.258;2023-05-10T02:18:53;11.30;;;1.20;;
5979;SDS011;3016;50.308;8.258;2023-05-10T02:21:56;10.90;;;1.10;;
5979;SDS011;3016;50.308;8.258;2023-05-10T02:24:59;11.00;;;1.13;;
5979;SDS011;3016;50.308;8.258;2023-05-10T02:28:01;18.47;;;1.27;;
5979;SDS011;3016;50.308;8.258;2023-05-10T02:31:05;10.77;;;0.90;;
5979;SDS011;3016;50.308;8.258;2023-05-10T02:34:07;11.10;;;1.10;;
5979;SDS011;3016;50.308;8.258;2023-05-10T02:37:08;10.87;;;0.83;;
5979;SDS011;3016;50.308;8.258;2023-05-10T02:40:10;11.70;;;1.07;;
5979;SDS011;3016;50.308;8.258;2023-05-10T02:43:13;10.87;;;0.83;;
5979;SDS011;3016;50.308;8.258;2023-05-10T02:46:16;11.20;;;1.10;;
5979;SDS011;3016;50.308;8.258;2023-05-10T02:49:17;11.07;;;1.00;;
5979;SDS011;3016;50.308;8.258;2023-05-10T02:52:23;10.90;;;1.03;;
5979;SDS011;3016;50.308;8.258;2023-05-10T02:55:35;11.10;;;1.20;;
5979;SDS011;3016;50.308;8.258;2023-05-10T02:58:39;11.80;;;1.40;;
5979;SDS011;3016;50.308;8.258;2023-05-10T03:01:39;11.20;;;1.20;;
5979;SDS011;3016;50.308;8.258;2023-05-10T03:04:40;11.10;;;1.27;;
5979;SDS011;3016;50.308;8.258;2023-05-10T03:07:41;10.80;;;1.10;;
5979;SDS011;3016;50.308;8.258;2023-05-10T03:10:46;11.20;;;1.27;;
5979;SDS011;3016;50.308;8.258;2023-05-10T03:17:52;11.33;;;1.23;;
5979;SDS011;3016;50.308;8.258;2023-05-10T03:21:04;11.23;;;1.00;;
5979;SDS011;3016;50.308;8.258;2023-05-10T03:24:08;13.20;;;1.10;;
5979;SDS011;3016;50.308;8.258;2023-05-10T03:27:11;11.00;;;1.20;;
5979;SDS011;3016;50.308;8.258;2023-05-10T03:30:14;11.67;;;1.40;;
5979;SDS011;3016;50.308;8.258;2023-05-10T03:33:16;19.33;;;1.30;;
5979;SDS011;3016;50.308;8.258;2023-05-10T03:36:17;11.33;;;1.40;;
5979;SDS011;3016;50.308;8.258;2023-05-10T03:39:18;12.03;;;1.47;;
5979;SDS011;3016;50.308;8.258;2023-05-10T03:42:21;11.07;;;1.40;;
5979;SDS011;3016;50.308;8.258;2023-05-10T03:45:21;11.07;;;1.30;;
5979;SDS011;3016;50.308;8.258;2023-05-10T03:48:22;10.90;;;1.23;;
5979;SDS011;3016;50.308;8.258;2023-05-10T03:51:23;11.27;;;1.37;;
5979;SDS011;3016;50.308;8.258;2023-05-10T03:54:27;12.40;;;1.60;;
5979;SDS011;3016;50.308;8.258;2023-05-10T03:57:28;11.30;;;1.53;;
5979;SDS011;3016;50.308;8.258;2023-05-10T04:00:29;11.13;;;1.33;;
5979;SDS011;3016;50.308;8.258;2023-05-10T04:03:30;11.50;;;1.50;;
5979;SDS011;3016;50.308;8.258;2023-05-10T04:06:31;11.30;;;1.37;;
5979;SDS011;3016;50.308;8.258;2023-05-10T04:09:32;11.50;;;1.50;;
5979;SDS011;3016;50.308;8.258;2023-05-10T04:12:33;11.40;;;1.53;;
5979;SDS011;3016;50.308;8.258;2023-05-10T04:15:40;17.90;;;1.73;;
5979;SDS011;3016;50.308;8.258;2023-05-10T04:18:41;11.47;;;1.63;;
5979;SDS011;3016;50.308;8.258;2023-05-10T04:21:41;11.03;;;1.20;;
5979;SDS011;3016;50.308;8.258;2023-05-10T04:24:42;11.90;;;1.73;;
5979;SDS011;3016;50.308;8.258;2023-05-10T04:27:43;12.83;;;1.60;;
5979;SDS011;3016;50.308;8.258;2023-05-10T04:30:43;11.50;;;1.73;;
5979;SDS011;3016;50.308;8.258;2023-05-10T04:33:44;11.60;;;1.80;;
5979;SDS011;3016;50.308;8.258;2023-05-10T04:36:45;13.20;;;1.40;;
5979;SDS011;3016;50.308;8.258;2023-05-10T04:39:45;12.17;;;2.10;;
5979;SDS011;3016;50.308;8.258;2023-05-10T04:42:46;11.70;;;1.57;;
5979;SDS011;3016;50.308;8.258;2023-05-10T04:45:47;11.90;;;1.70;;
5979;SDS011;3016;50.308;8.258;2023-05-10T04:48:48;11.23;;;1.40;;
5979;SDS011;3016;50.308;8.258;2023-05-10T04:51:48;11.60;;;1.80;;
5979;SDS011;3016;50.308;8.258;2023-05-10T04:54:49;11.83;;;1.90;;
5979;SDS011;3016;50.308;8.258;2023-05-10T04:57:50;12.03;;;2.07;;
5979;SDS011;3016;50.308;8.258;2023-05-10T05:00:51;12.70;;;2.20;;
5979;SDS011;3016;50.308;8.258;2023-05-10T05:03:52;12.43;;;2.53;;
5979;SDS011;3016;50.308;8.258;2023-05-10T05:06:52;12.77;;;2.87;;
5979;SDS011;3016;50.308;8.258;2023-05-10T05:09:53;14.20;;;3.57;;
5979;SDS011;3016;50.308;8.258;2023-05-10T05:12:54;15.10;;;4.73;;
5979;SDS011;3016;50.308;8.258;2023-05-10T05:15:54;16.03;;;4.80;;
5979;SDS011;3016;50.308;8.258;2023-05-10T05:18:55;15.37;;;4.53;;
5979;SDS011;3016;50.308;8.258;2023-05-10T05:21:56;13.30;;;3.40;;
5979;SDS011;3016;50.308;8.258;2023-05-10T05:25:00;12.90;;;2.87;;
5979;SDS011;3016;50.308;8.258;2023-05-10T05:28:02;13.03;;;3.00;;
5979;SDS011;3016;50.308;8.258;2023-05-10T05:31:03;18.00;;;5.70;;
5979;SDS011;3016;50.308;8.258;2023-05-10T05:34:05;16.07;;;4.33;;
5979;SDS011;3016;50.308;8.258;2023-05-10T05:37:06;16.47;;;4.87;;
5979;SDS011;3016;50.308;8.258;2023-05-10T05:40:07;15.23;;;3.37;;
5979;SDS011;3016;50.308;8.258;2023-05-10T05:43:08;12.57;;;2.60;;
5979;SDS011;3016;50.308;8.258;2023-05-10T05:46:08;12.70;;;2.53;;
5979;SDS011;3016;50.308;8.258;2023-05-10T05:49:09;12.20;;;2.20;;
5979;SDS011;3016;50.308;8.258;2023-05-10T05:52:10;12.40;;;2.70;;
5979;SDS011;3016;50.308;8.258;2023-05-10T05:55:11;13.80;;;3.00;;
5979;SDS011;3016;50.308;8.258;2023-05-10T05:58:11;13.90;;;3.50;;
5979;SDS011;3016;50.308;8.258;2023-05-10T06:01:12;12.23;;;2.40;;
5979;SDS011;3016;50.308;8.258;2023-05-10T06:04:13;18.70;;;2.67;;
5979;SDS011;3016;50.308;8.258;2023-05-10T06:07:14;13.60;;;3.27;;
5979;SDS011;3016;50.308;8.258;2023-05-10T06:10:14;14.53;;;3.90;;
5979;SDS011;3016;50.308;8.258;2023-05-10T06:13:15;13.60;;;3.17;;
5979;SDS011;3016;50.308;8.258;2023-05-10T06:16:16;11.93;;;2.30;;
5979;SDS011;3016;50.308;8.258;2023-05-10T06:19:17;12.70;;;2.87;;
5979;SDS011;3016;50.308;8.258;2023-05-10T06:22:18;11.97;;;2.43;;
5979;SDS011;3016;50.308;8.258;2023-05-10T06:25:19;13.17;;;3.00;;
5979;SDS011;3016;50.308;8.258;2023-05-10T06:28:19;13.40;;;2.70;;
5979;SDS011;3016;50.308;8.258;2023-05-10T06:31:20;15.10;;;2.57;;
5979;SDS011;3016;50.308;8.258;2023-05-10T06:34:20;14.20;;;3.00;;
5979;SDS011;3016;50.308;8.258;2023-05-10T06:37:21;12.53;;;2.40;;
5979;SDS011;3016;50.308;8.258;2023-05-10T06:40:22;13.33;;;2.63;;
5979;SDS011;3016;50.308;8.258;2023-05-10T06:43:22;14.23;;;3.00;;
5979;SDS011;3016;50.308;8.258;2023-05-10T06:46:24;12.77;;;2.63;;
5979;SDS011;3016;50.308;8.258;2023-05-10T06:49:25;13.80;;;3.60;;
5979;SDS011;3016;50.308;8.258;2023-05-10T06:52:26;14.17;;;3.03;;
5979;SDS011;3016;50.308;8.258;2023-05-10T06:55:27;12.23;;;2.47;;
5979;SDS011;3016;50.308;8.258;2023-05-10T06:58:28;13.00;;;2.57;;
5979;SDS011;3016;50.308;8.258;2023-05-10T07:01:29;13.40;;;3.13;;
5979;SDS011;3016;50.308;8.258;2023-05-10T07:04:29;13.40;;;2.83;;
5979;SDS011;3016;50.308;8.258;2023-05-10T07:07:30;14.60;;;3.33;;
5979;SDS011;3016;50.308;8.258;2023-05-10T07:10:31;15.30;;;3.07;;
5979;SDS011;3016;50.308;8.258;2023-05-10T07:13:31;13.63;;;2.93;;
5979;SDS011;3016;50.308;8.258;2023-05-10T07:16:32;12.50;;;2.80;;
5979;SDS011;3016;50.308;8.258;2023-05-10T07:19:33;12.03;;;2.30;;
5979;SDS011;3016;50.308;8.258;2023-05-10T07:22:34;13.20;;;2.73;;
5979;SDS011;3016;50.308;8.258;2023-05-10T07:25:34;13.23;;;3.00;;
5979;SDS011;3016;50.308;8.258;2023-05-10T07:28:35;13.60;;;2.90;;
5979;SDS011;3016;50.308;8.258;2023-05-10T07:31:37;13.77;;;2.70;;
5979;SDS011;3016;50.308;8.258;2023-05-10T07:34:38;13.60;;;3.10;;
5979;SDS011;3016;50.308;8.258;2023-05-10T07:37:38;14.53;;;3.77;;
5979;SDS011;3016;50.308;8.258;2023-05-10T07:40:39;13.07;;;2.53;;
5979;SDS011;3016;50.308;8.258;2023-05-10T07:43:40;13.67;;;3.10;;
5979;SDS011;3016;50.308;8.258;2023-05-10T07:46:40;14.60;;;2.80;;
5979;SDS011;3016;50.308;8.258;2023-05-10T07:49:41;13.20;;;2.50;;
5979;SDS011;3016;50.308;8.258;2023-05-10T07:52:42;13.63;;;2.30;;
5979;SDS011;3016;50.308;8.258;2023-05-10T07:55:42;14.10;;;2.23;;
5979;SDS011;3016;50.308;8.258;2023-05-10T07:58:43;13.13;;;2.63;;
5979;SDS011;3016;50.308;8.258;2023-05-10T08:01:44;12.50;;;2.50;;
5979;SDS011;3016;50.308;8.258;2023-05-10T08:04:45;12.83;;;2.43;;
5979;SDS011;3016;50.308;8.258;2023-05-10T08:07:46;14.57;;;3.07;;
5979;SDS011;3016;50.308;8.258;2023-05-10T08:10:46;14.07;;;2.53;;
5979;SDS011;3016;50.308;8.258;2023-05-10T08:13:48;15.00;;;3.50;;
5979;SDS011;3016;50.308;8.258;2023-05-10T08:16:50;13.20;;;2.70;;
5979;SDS011;3016;50.308;8.258;2023-05-10T08:19:51;16.00;;;3.93;;
5979;SDS011;3016;50.308;8.258;2023-05-10T08:22:51;14.90;;;3.07;;
5979;SDS011;3016;50.308;8.258;2023-05-10T08:25:52;15.17;;;2.83;;
5979;SDS011;3016;50.308;8.258;2023-05-10T08:28:53;12.90;;;2.37;;
5979;SDS011;3016;50.308;8.258;2023-05-10T08:31:53;14.40;;;2.57;;
5979;SDS011;3016;50.308;8.258;2023-05-10T08:34:54;15.67;;;3.90;;
5979;SDS011;3016;50.308;8.258;2023-05-10T08:37:56;12.87;;;2.47;;
5979;SDS011;3016;50.308;8.258;2023-05-10T08:40:56;12.90;;;2.20;;
5979;SDS011;3016;50.308;8.258;2023-05-10T08:43:58;14.40;;;2.87;;
5979;SDS011;3016;50.308;8.258;2023-05-10T08:47:06;12.70;;;2.50;;
5979;SDS011;3016;50.308;8.258;2023-05-10T08:50:08;21.73;;;2.87;;
5979;SDS011;3016;50.308;8.258;2023-05-10T08:53:11;13.00;;;2.60;;
5979;SDS011;3016;50.308;8.258;2023-05-10T08:56:13;13.20;;;2.40;;
5979;SDS011;3016;50.308;8.258;2023-05-10T08:59:15;13.53;;;2.97;;
5979;SDS011;3016;50.308;8.258;2023-05-10T09:02:16;13.50;;;2.80;;
5979;SDS011;3016;50.308;8.258;2023-05-10T09:05:18;13.60;;;2.47;;
5979;SDS011;3016;50.308;8.258;2023-05-10T09:08:19;15.03;;;3.37;;
5979;SDS011;3016;50.308;8.258;2023-05-10T09:11:20;15.33;;;2.47;;
5979;SDS011;3016;50.308;8.258;2023-05-10T09:14:23;14.97;;;2.60;;
5979;SDS011;3016;50.308;8.258;2023-05-10T09:17:25;13.50;;;2.50;;
5979;SDS011;3016;50.308;8.258;2023-05-10T09:20:26;13.90;;;2.63;;
5979;SDS011;3016;50.308;8.258;2023-05-10T09:23:27;13.40;;;2.10;;
5979;SDS011;3016;50.308;8.258;2023-05-10T09:26:32;14.37;;;2.40;;
5979;SDS011;3016;50.308;8.258;2023-05-10T09:29:42;14.50;;;2.30;;
5979;SDS011;3016;50.308;8.258;2023-05-10T09:32:44;13.17;;;2.37;;
5979;SDS011;3016;50.308;8.258;2023-05-10T09:35:47;13.77;;;2.37;;
5979;SDS011;3016;50.308;8.258;2023-05-10T09:38:51;12.90;;;2.40;;
5979;SDS011;3016;50.308;8.258;2023-05-10T09:41:52;14.30;;;2.40;;
5979;SDS011;3016;50.308;8.258;2023-05-10T09:44:53;14.57;;;2.27;;
5979;SDS011;3016;50.308;8.258;2023-05-10T09:47:54;15.00;;;3.47;;
5979;SDS011;3016;50.308;8.258;2023-05-10T09:50:58;14.47;;;2.80;;
5979;SDS011;3016;50.308;8.258;2023-05-10T09:54:08;13.63;;;2.50;;
5979;SDS011;3016;50.308;8.258;2023-05-10T09:57:18;12.90;;;2.27;;
5979;SDS011;3016;50.308;8.258;2023-05-10T10:00:23;14.37;;;2.27;;
5979;SDS011;3016;50.308;8.258;2023-05-10T10:03:24;14.83;;;2.40;;
5979;SDS011;3016;50.308;8.258;2023-05-10T10:06:24;14.00;;;2.10;;
5979;SDS011;3016;50.308;8.258;2023-05-10T10:09:26;13.00;;;2.00;;
5979;SDS011;3016;50.308;8.258;2023-05-10T10:12:27;14.77;;;2.37;;
5979;SDS011;3016;50.308;8.258;2023-05-10T10:15:28;13.40;;;1.90;;
5979;SDS011;3016;50.308;8.258;2023-05-10T10:18:29;14.90;;;2.10;;
5979;SDS011;3016;50.308;8.258;2023-05-10T10:21:31;12.57;;;1.47;;
5979;SDS011;3016;50.308;8.258;2023-05-10T10:24:32;12.40;;;1.40;;
5979;SDS011;3016;50.308;8.258;2023-05-10T10:27:49;12.60;;;1.47;;
5979;SDS011;3016;50.308;8.258;2023-05-10T10:31:55;12.00;;;1.17;;
5979;SDS011;3016;50.308;8.258;2023-05-10T10:34:47;11.97;;;1.20;;
5979;SDS011;3016;50.308;8.258;2023-05-10T10:37:50;12.17;;;1.47;;
5979;SDS011;3016;50.308;8.258;2023-05-10T10:41:08;14.27;;;1.23;;
5979;SDS011;3016;50.308;8.258;2023-05-10T10:47:28;11.70;;;1.00;;
5979;SDS011;3016;50.308;8.258;2023-05-10T10:50:42;12.07;;;1.10;;
5979;SDS011;3016;50.308;8.258;2023-05-10T10:53:47;12.43;;;1.20;;
5979;SDS011;3016;50.308;8.258;2023-05-10T10:57:03;20.10;;;1.70;;
5979;SDS011;3016;50.308;8.258;2023-05-10T11:03:36;20.00;;;1.40;;
5979;SDS011;3016;50.308;8.258;2023-05-10T11:06:37;12.50;;;1.47;;
5979;SDS011;3016;50.308;8.258;2023-05-10T11:09:40;12.30;;;1.00;;
5979;SDS011;3016;50.308;8.258;2023-05-10T11:12:50;12.50;;;1.10;;
5979;SDS011;3016;50.308;8.258;2023-05-10T11:19:14;14.30;;;2.10;;
5979;SDS011;3016;50.308;8.258;2023-05-10T11:22:16;13.87;;;1.67;;
5979;SDS011;3016;50.308;8.258;2023-05-10T11:25:18;13.10;;;1.63;;
5979;SDS011;3016;50.308;8.258;2023-05-10T11:28:19;12.73;;;1.30;;
5979;SDS011;3016;50.308;8.258;2023-05-10T11:31:20;12.13;;;1.03;;
5979;SDS011;3016;50.308;8.258;2023-05-10T11:34:26;12.37;;;1.07;;
5979;SDS011;3016;50.308;8.258;2023-05-10T11:37:30;13.90;;;1.10;;
5979;SDS011;3016;50.308;8.258;2023-05-10T11:40:34;13.10;;;1.63;;
5979;SDS011;3016;50.308;8.258;2023-05-10T11:43:35;12.37;;;1.10;;
5979;SDS011;3016;50.308;8.258;2023-05-10T11:46:38;12.87;;;1.10;;
5979;SDS011;3016;50.308;8.258;2023-05-10T11:49:39;12.33;;;1.03;;
5979;SDS011;3016;50.308;8.258;2023-05-10T11:52:44;12.90;;;1.40;;
5979;SDS011;3016;50.308;8.258;2023-05-10T11:55:45;13.47;;;1.23;;
5979;SDS011;3016;50.308;8.258;2023-05-10T11:58:51;12.43;;;1.20;;
5979;SDS011;3016;50.308;8.258;2023-05-10T12:01:56;12.80;;;1.20;;
5979;SDS011;3016;50.308;8.258;2023-05-10T12:04:57;14.17;;;0.90;;
5979;SDS011;3016;50.308;8.258;2023-05-10T12:08:14;12.70;;;1.13;;
5979;SDS011;3016;50.308;8.258;2023-05-10T12:11:15;12.23;;;0.80;;
5979;SDS011;3016;50.308;8.258;2023-05-10T12:14:17;12.60;;;0.90;;
5979;SDS011;3016;50.308;8.258;2023-05-10T12:17:19;13.90;;;1.00;;
5979;SDS011;3016;50.308;8.258;2023-05-10T12:20:20;12.33;;;0.87;;
5979;SDS011;3016;50.308;8.258;2023-05-10T12:23:23;13.00;;;1.13;;
5979;SDS011;3016;50.308;8.258;2023-05-10T12:26:26;12.43;;;0.90;;
5979;SDS011;3016;50.308;8.258;2023-05-10T12:29:29;14.13;;;1.10;;
5979;SDS011;3016;50.308;8.258;2023-05-10T12:32:37;12.57;;;1.00;;
5979;SDS011;3016;50.308;8.258;2023-05-10T12:38:48;13.00;;;1.00;;
5979;SDS011;3016;50.308;8.258;2023-05-10T12:41:50;12.70;;;0.90;;
5979;SDS011;3016;50.308;8.258;2023-05-10T12:44:55;14.20;;;1.13;;
5979;SDS011;3016;50.308;8.258;2023-05-10T12:47:56;13.23;;;1.00;;
5979;SDS011;3016;50.308;8.258;2023-05-10T12:50:57;12.87;;;1.00;;
5979;SDS011;3016;50.308;8.258;2023-05-10T12:53:58;13.57;;;1.00;;
5979;SDS011;3016;50.308;8.258;2023-05-10T12:56:58;13.40;;;1.00;;
5979;SDS011;3016;50.308;8.258;2023-05-10T12:59:59;12.73;;;0.70;;
5979;SDS011;3016;50.308;8.258;2023-05-10T13:03:00;15.13;;;1.00;;
5979;SDS011;3016;50.308;8.258;2023-05-10T13:06:01;12.73;;;0.80;;
5979;SDS011;3016;50.308;8.258;2023-05-10T13:09:01;13.80;;;1.03;;
5979;SDS011;3016;50.308;8.258;2023-05-10T13:12:02;12.87;;;0.80;;
5979;SDS011;3016;50.308;8.258;2023-05-10T13:15:03;12.63;;;0.80;;
5979;SDS011;3016;50.308;8.258;2023-05-10T13:18:04;12.63;;;0.80;;
5979;SDS011;3016;50.308;8.258;2023-05-10T13:21:05;13.10;;;1.00;;
5979;SDS011;3016;50.308;8.258;2023-05-10T13:24:07;13.30;;;1.00;;
5979;SDS011;3016;50.308;8.258;2023-05-10T13:27:08;14.43;;;1.13;;
5979;SDS011;3016;50.308;8.258;2023-05-10T13:30:09;14.23;;;1.10;;
5979;SDS011;3016;50.308;8.258;2023-05-10T13:33:11;14.90;;;1.00;;
5979;SDS011;3016;50.308;8.258;2023-05-10T13:36:12;13.97;;;1.17;;
5979;SDS011;3016;50.308;8.258;2023-05-10T13:39:12;12.60;;;1.00;;
5979;SDS011;3016;50.308;8.258;2023-05-10T13:42:13;13.20;;;1.10;;
5979;SDS011;3016;50.308;8.258;2023-05-10T13:45:14;16.03;;;1.10;;
5979;SDS011;3016;50.308;8.258;2023-05-10T13:48:15;13.60;;;1.33;;
5979;SDS011;3016;50.308;8.258;2023-05-10T13:51:16;12.73;;;1.00;;
5979;SDS011;3016;50.308;8.258;2023-05-10T13:54:16;15.67;;;1.10;;
5979;SDS011;3016;50.308;8.258;2023-05-10T13:57:19;12.90;;;1.20;;
5979;SDS011;3016;50.308;8.258;2023-05-10T14:00:20;13.80;;;1.30;;
5979;SDS011;3016;50.308;8.258;2023-05-10T14:03:21;13.03;;;1.30;;
5979;SDS011;3016;50.308;8.258;2023-05-10T14:06:22;13.10;;;1.20;;
5979;SDS011;3016;50.308;8.258;2023-05-10T14:09:23;13.00;;;1.00;;
5979;SDS011;3016;50.308;8.258;2023-05-10T14:12:23;13.10;;;1.30;;
5979;SDS011;3016;50.308;8.258;2023-05-10T14:15:24;12.83;;;1.27;;
5979;SDS011;3016;50.308;8.258;2023-05-10T14:18:25;12.90;;;1.40;;
5979;SDS011;3016;50.308;8.258;2023-05-10T14:21:26;13.23;;;1.47;;
5979;SDS011;3016;50.308;8.258;2023-05-10T14:24:27;14.13;;;1.73;;
5979;SDS011;3016;50.308;8.258;2023-05-10T14:27:28;13.97;;;1.27;;
5979;SDS011;3016;50.308;8.258;2023-05-10T14:30:31;20.80;;;1.47;;
5979;SDS011;3016;50.308;8.258;2023-05-10T14:33:32;13.30;;;1.27;;
5979;SDS011;3016;50.308;8.258;2023-05-10T14:36:33;13.20;;;1.60;;
5979;SDS011;3016;50.308;8.258;2023-05-10T14:39:34;13.30;;;1.20;;
5979;SDS011;3016;50.308;8.258;2023-05-10T14:42:35;13.63;;;1.30;;
5979;SDS011;3016;50.308;8.258;2023-05-10T14:45:35;13.13;;;1.60;;
5979;SDS011;3016;50.308;8.258;2023-05-10T14:48:36;13.10;;;1.23;;
5979;SDS011;3016;50.308;8.258;2023-05-10T14:51:37;12.80;;;1.10;;
5979;SDS011;3016;50.308;8.258;2023-05-10T14:54:38;13.10;;;1.30;;
5979;SDS011;3016;50.308;8.258;2023-05-10T14:57:39;13.20;;;1.27;;
5979;SDS011;3016;50.308;8.258;2023-05-10T15:00:40;12.80;;;1.20;;
5979;SDS011;3016;50.308;8.258;2023-05-10T15:03:46;13.40;;;1.30;;
5979;SDS011;3016;50.308;8.258;2023-05-10T15:06:47;13.73;;;1.30;;
5979;SDS011;3016;50.308;8.258;2023-05-10T15:09:47;12.73;;;0.90;;
5979;SDS011;3016;50.308;8.258;2023-05-10T15:12:48;13.10;;;1.30;;
5979;SDS011;3016;50.308;8.258;2023-05-10T15:15:50;14.60;;;1.40;;
5979;SDS011;3016;50.308;8.258;2023-05-10T15:18:50;16.43;;;1.37;;
5979;SDS011;3016;50.308;8.258;2023-05-10T15:21:51;12.70;;;1.20;;
5979;SDS011;3016;50.308;8.258;2023-05-10T15:24:52;13.10;;;1.13;;
5979;SDS011;3016;50.308;8.258;2023-05-10T15:27:52;13.63;;;1.20;;
5979;SDS011;3016;50.308;8.258;2023-05-10T15:30:53;12.83;;;1.10;;
5979;SDS011;3016;50.308;8.258;2023-05-10T15:33:56;12.90;;;1.10;;
5979;SDS011;3016;50.308;8.258;2023-05-10T15:37:01;13.07;;;1.40;;
5979;SDS011;3016;50.308;8.258;2023-05-10T15:40:02;12.80;;;1.00;;
5979;SDS011;3016;50.308;8.258;2023-05-10T15:43:04;13.30;;;1.40;;
5979;SDS011;3016;50.308;8.258;2023-05-10T15:46:05;13.40;;;1.00;;
5979;SDS011;3016;50.308;8.258;2023-05-10T15:49:06;14.43;;;1.63;;
5979;SDS011;3016;50.308;8.258;2023-05-10T15:52:06;13.50;;;1.60;;
5979;SDS011;3016;50.308;8.258;2023-05-10T15:55:08;14.53;;;1.50;;
5979;SDS011;3016;50.308;8.258;2023-05-10T15:58:11;13.27;;;1.40;;
5979;SDS011;3016;50.308;8.258;2023-05-10T16:01:12;13.07;;;1.20;;
5979;SDS011;3016;50.308;8.258;2023-05-10T16:04:13;13.07;;;1.00;;
5979;SDS011;3016;50.308;8.258;2023-05-10T16:07:13;12.93;;;1.10;;
5979;SDS011;3016;50.308;8.258;2023-05-10T16:10:14;17.13;;;1.07;;
5979;SDS011;3016;50.308;8.258;2023-05-10T16:13:15;13.13;;;1.20;;
5979;SDS011;3016;50.308;8.258;2023-05-10T16:16:16;14.40;;;1.20;;
5979;SDS011;3016;50.308;8.258;2023-05-10T16:19:16;13.30;;;1.57;;
5979;SDS011;3016;50.308;8.258;2023-05-10T16:22:17;12.90;;;1.20;;
5979;SDS011;3016;50.308;8.258;2023-05-10T16:25:18;13.50;;;1.33;;
5979;SDS011;3016;50.308;8.258;2023-05-10T16:28:18;13.97;;;1.40;;
5979;SDS011;3016;50.308;8.258;2023-05-10T16:31:20;13.10;;;1.10;;
5979;SDS011;3016;50.308;8.258;2023-05-10T16:34:21;13.67;;;1.33;;
5979;SDS011;3016;50.308;8.258;2023-05-10T16:37:24;13.50;;;1.33;;
5979;SDS011;3016;50.308;8.258;2023-05-10T16:40:25;15.73;;;1.70;;
5979;SDS011;3016;50.308;8.258;2023-05-10T16:43:26;14.23;;;1.37;;
5979;SDS011;3016;50.308;8.258;2023-05-10T16:46:26;13.50;;;1.33;;
5979;SDS011;3016;50.308;8.258;2023-05-10T16:49:27;13.27;;;1.23;;
5979;SDS011;3016;50.308;8.258;2023-05-10T16:52:28;14.10;;;1.27;;
5979;SDS011;3016;50.308;8.258;2023-05-10T16:55:28;13.10;;;1.40;;
5979;SDS011;3016;50.308;8.258;2023-05-10T16:58:29;13.13;;;1.50;;
5979;SDS011;3016;50.308;8.258;2023-05-10T17:01:30;14.97;;;1.63;;
5979;SDS011;3016;50.308;8.258;2023-05-10T17:04:32;15.20;;;1.40;;
5979;SDS011;3016;50.308;8.258;2023-05-10T17:07:33;13.90;;;1.20;;
5979;SDS011;3016;50.308;8.258;2023-05-10T17:10:33;15.37;;;2.03;;
5979;SDS011;3016;50.308;8.258;2023-05-10T17:13:35;13.27;;;1.20;;
5979;SDS011;3016;50.308;8.258;2023-05-10T17:16:37;14.80;;;1.60;;
5979;SDS011;3016;50.308;8.258;2023-05-10T17:19:38;13.60;;;1.50;;
5979;SDS011;3016;50.308;8.258;2023-05-10T17:22:39;13.70;;;1.63;;
5979;SDS011;3016;50.308;8.258;2023-05-10T17:25:40;14.87;;;1.80;;
5979;SDS011;3016;50.308;8.258;2023-05-10T17:28:41;14.20;;;2.10;;
5979;SDS011;3016;50.308;8.258;2023-05-10T17:31:41;14.33;;;2.40;;
5979;SDS011;3016;50.308;8.258;2023-05-10T17:34:42;14.97;;;2.20;;
5979;SDS011;3016;50.308;8.258;2023-05-10T17:37:43;13.23;;;1.73;;
5979;SDS011;3016;50.308;8.258;2023-05-10T17:40:44;13.80;;;1.80;;
5979;SDS011;3016;50.308;8.258;2023-05-10T17:43:45;14.90;;;2.20;;
5979;SDS011;3016;50.308;8.258;2023-05-10T17:46:45;16.33;;;2.03;;
5979;SDS011;3016;50.308;8.258;2023-05-10T17:49:46;15.33;;;2.77;;
5979;SDS011;3016;50.308;8.258;2023-05-10T17:52:47;15.07;;;2.27;;
5979;SDS011;3016;50.308;8.258;2023-05-10T17:55:49;14.47;;;1.90;;
5979;SDS011;3016;50.308;8.258;2023-05-10T17:58:51;14.90;;;2.00;;
5979;SDS011;3016;50.308;8.258;2023-05-10T18:01:51;13.07;;;1.60;;
5979;SDS011;3016;50.308;8.258;2023-05-10T18:04:52;14.30;;;1.80;;
5979;SDS011;3016;50.308;8.258;2023-05-10T18:07:52;13.23;;;1.50;;
5979;SDS011;3016;50.308;8.258;2023-05-10T18:10:53;13.40;;;1.90;;
5979;SDS011;3016;50.308;8.258;2023-05-10T18:13:54;13.73;;;2.10;;
5979;SDS011;3016;50.308;8.258;2023-05-10T18:16:55;13.77;;;2.10;;
5979;SDS011;3016;50.308;8.258;2023-05-10T18:19:55;13.83;;;1.73;;
5979;SDS011;3016;50.308;8.258;2023-05-10T18:22:56;14.20;;;2.00;;
5979;SDS011;3016;50.308;8.258;2023-05-10T18:25:57;16.90;;;2.20;;
5979;SDS011;3016;50.308;8.258;2023-05-10T18:28:58;14.63;;;1.60;;
5979;SDS011;3016;50.308;8.258;2023-05-10T18:31:58;14.00;;;1.40;;
5979;SDS011;3016;50.308;8.258;2023-05-10T18:34:59;14.60;;;1.60;;
5979;SDS011;3016;50.308;8.258;2023-05-10T18:38:00;13.07;;;1.73;;
5979;SDS011;3016;50.308;8.258;2023-05-10T18:41:01;14.10;;;1.70;;
5979;SDS011;3016;50.308;8.258;2023-05-10T18:44:02;12.73;;;1.40;;
5979;SDS011;3016;50.308;8.258;2023-05-10T18:47:03;13.40;;;1.60;;
5979;SDS011;3016;50.308;8.258;2023-05-10T18:50:04;13.53;;;1.50;;
5979;SDS011;3016;50.308;8.258;2023-05-10T18:53:06;14.50;;;1.60;;
5979;SDS011;3016;50.308;8.258;2023-05-10T18:56:06;14.80;;;2.07;;
5979;SDS011;3016;50.308;8.258;2023-05-10T18:59:07;15.40;;;1.97;;
5979;SDS011;3016;50.308;8.258;2023-05-10T19:02:08;14.40;;;1.70;;
5979;SDS011;3016;50.308;8.258;2023-05-10T19:05:08;13.27;;;1.40;;
5979;SDS011;3016;50.308;8.258;2023-05-10T19:08:09;14.57;;;2.00;;